createdAt,value
2024-01-22T00:00:19.130Z,101216.09
2024-01-22T00:02:20.769Z,101183.75
2024-01-22T00:04:22.438Z,101180.31
2024-01-22T00:06:24.150Z,101190.69
2024-01-22T00:08:25.853Z,101190.69
2024-01-22T00:10:27.443Z,101163.47
2024-01-22T00:12:29.171Z,101184.72
2024-01-22T00:14:30.748Z,101164.22
2024-01-22T00:16:32.896Z,101154.63
2024-01-22T00:18:34.783Z,101160.81
2024-01-22T00:20:36.683Z,101161.66
2024-01-22T00:22:38.292Z,101146.50
2024-01-22T00:24:41.105Z,101124.22
2024-01-22T00:26:42.872Z,101100.09
2024-01-22T00:28:44.569Z,101094.66
2024-01-22T00:30:46.325Z,101080.38
2024-01-22T00:32:48.255Z,101083.88
2024-01-22T00:34:50.047Z,101100.00
2024-01-22T00:36:51.746Z,101100.94
2024-01-22T00:38:53.601Z,101093.16
2024-01-22T00:40:55.381Z,101116.22
2024-01-22T00:42:56.991Z,101115.25
2024-01-22T00:44:58.623Z,101081.56
2024-01-22T00:47:00.305Z,101087.50
2024-01-22T00:49:01.982Z,101079.38
2024-01-22T00:51:04.030Z,101109.59
2024-01-22T00:53:05.622Z,101114.69
2024-01-22T00:55:07.649Z,101094.31
2024-01-22T00:57:09.406Z,101113.00
2024-01-22T00:59:11.083Z,101107.03
2024-01-22T01:01:13.074Z,101115.78
2024-01-22T01:03:14.865Z,101104.50
2024-01-22T01:05:17.204Z,101089.56
2024-01-22T01:07:18.943Z,101108.84
2024-01-22T01:09:20.579Z,101112.28
2024-01-22T01:11:22.209Z,101106.81
2024-01-22T01:13:23.963Z,101103.94
2024-01-22T01:15:25.660Z,101107.66
2024-01-22T01:17:27.571Z,101099.44
2024-01-22T01:19:29.298Z,101117.13
2024-01-22T01:21:30.954Z,101117.13
2024-01-22T01:23:34.356Z,101092.41
2024-01-22T01:25:37.343Z,101098.81
2024-01-22T01:27:38.951Z,101085.59
2024-01-22T01:29:40.636Z,101096.16
2024-01-22T01:31:42.479Z,101082.59
2024-01-22T01:33:44.370Z,101081.63
2024-01-22T01:35:47.164Z,101070.84
2024-01-22T01:37:48.834Z,101067.97
2024-01-22T01:39:50.418Z,101042.97
2024-01-22T01:41:52.563Z,101026.97
2024-01-22T01:43:54.211Z,101041.38
2024-01-22T01:45:55.942Z,101031.69
2024-01-22T01:47:57.708Z,101045.13
2024-01-22T01:49:59.399Z,101054.09
2024-01-22T01:52:01.570Z,101069.25
2024-01-22T01:54:03.606Z,101054.00
2024-01-22T01:56:05.869Z,101060.81
2024-01-22T01:58:07.662Z,101052.69
2024-01-22T02:00:13.396Z,101047.97
2024-01-22T02:02:15.564Z,101048.09
2024-01-22T02:04:17.233Z,101047.97
2024-01-22T02:06:18.966Z,101067.63
2024-01-22T02:08:20.617Z,101057.16
2024-01-22T02:10:22.207Z,101038.63
2024-01-22T02:12:24.042Z,101065.53
2024-01-22T02:14:25.619Z,101048.44
2024-01-22T02:16:27.210Z,101060.28
2024-01-22T02:18:28.946Z,101057.06
2024-01-22T02:20:30.883Z,101066.63
2024-01-22T02:22:32.455Z,101057.78
2024-01-22T02:24:34.444Z,101065.69
2024-01-22T02:26:37.569Z,101069.09
2024-01-22T02:28:39.297Z,101072.72
2024-01-22T02:30:40.867Z,101059.16
2024-01-22T02:32:42.476Z,101051.50
2024-01-22T02:34:44.535Z,101045.44
2024-01-22T02:36:46.936Z,101040.22
2024-01-22T02:38:48.544Z,101033.06
2024-01-22T02:40:50.159Z,101020.34
2024-01-22T02:42:52.102Z,101015.09
2024-01-22T02:44:53.923Z,101011.03
2024-01-22T02:46:55.896Z,101009.22
2024-01-22T02:48:57.812Z,101011.88
2024-01-22T02:50:59.627Z,100996.81
2024-01-22T02:53:01.312Z,101015.28
2024-01-22T02:55:03.008Z,100991.50
2024-01-22T02:57:04.944Z,100994.28
2024-01-22T02:59:08.062Z,100979.56
2024-01-22T03:01:09.691Z,100985.53
2024-01-22T03:03:11.319Z,100994.16
2024-01-22T03:05:12.997Z,100980.72
2024-01-22T03:07:14.749Z,100973.44
2024-01-22T03:09:16.489Z,100958.41
2024-01-22T03:11:18.322Z,100962.75
2024-01-22T03:13:19.943Z,100969.69
2024-01-22T03:15:21.596Z,100965.19
2024-01-22T03:17:23.298Z,100959.16
2024-01-22T03:19:25.003Z,100936.94
2024-01-22T03:21:26.612Z,100940.56
2024-01-22T03:23:28.517Z,100934.50
2024-01-22T03:25:30.087Z,100944.09
2024-01-22T03:27:31.746Z,100943.84
2024-01-22T03:29:33.469Z,100919.72
2024-01-22T03:31:38.847Z,100924.94
2024-01-22T03:33:40.546Z,100918.66
2024-01-22T03:35:42.164Z,100933.81
2024-01-22T03:37:43.818Z,100924.22
2024-01-22T03:39:45.443Z,100915.16
2024-01-22T03:41:47.164Z,100928.59
2024-01-22T03:43:48.712Z,100916.09
2024-01-22T03:45:50.215Z,100935.00
2024-01-22T03:47:52.340Z,100921.56
2024-01-22T03:49:54.210Z,100901.06
2024-01-22T03:51:55.859Z,100909.81
2024-01-22T03:53:57.598Z,100914.16
2024-01-22T03:55:59.358Z,100910.66
2024-01-22T03:58:00.995Z,100895.13
2024-01-22T04:00:03.516Z,100902.75
2024-01-22T04:02:05.686Z,100903.34
2024-01-22T04:04:07.344Z,100901.66
2024-01-22T04:06:09.040Z,100904.34
2024-01-22T04:08:10.679Z,100899.22
2024-01-22T04:10:12.304Z,100888.31
2024-01-22T04:12:14.103Z,100891.84
2024-01-22T04:14:15.784Z,100883.59
2024-01-22T04:16:17.393Z,100876.06
2024-01-22T04:18:19.181Z,100893.06
2024-01-22T04:20:20.904Z,100897.47
2024-01-22T04:22:22.611Z,100894.66
2024-01-22T04:24:24.205Z,100909.06
2024-01-22T04:26:25.856Z,100900.34
2024-01-22T04:28:27.427Z,100892.44
2024-01-22T04:30:29.119Z,100880.94
2024-01-22T04:32:30.978Z,100899.75
2024-01-22T04:34:33.152Z,100903.97
2024-01-22T04:36:34.853Z,100892.34
2024-01-22T04:38:36.504Z,100896.47
2024-01-22T04:40:38.092Z,100884.81
2024-01-22T04:42:41.585Z,100892.84
2024-01-22T04:44:43.317Z,100890.16
2024-01-22T04:46:44.914Z,100891.03
2024-01-22T04:48:47.384Z,100876.81
2024-01-22T04:50:49.074Z,100869.78
2024-01-22T04:52:50.752Z,100849.03
2024-01-22T04:54:55.136Z,100872.94
2024-01-22T04:57:00.817Z,100869.66
2024-01-22T04:59:02.531Z,100857.53
2024-01-22T05:01:04.508Z,100859.25
2024-01-22T05:03:06.766Z,100855.47
2024-01-22T05:05:08.587Z,100858.91
2024-01-22T05:07:10.151Z,100870.19
2024-01-22T05:09:12.134Z,100862.41
2024-01-22T05:11:13.868Z,100855.41
2024-01-22T05:13:15.473Z,100838.13
2024-01-22T05:15:17.187Z,100859.00
2024-01-22T05:17:18.950Z,100830.31
2024-01-22T05:19:20.811Z,100849.41
2024-01-22T05:21:23.165Z,100855.59
2024-01-22T05:23:25.072Z,100848.34
2024-01-22T05:25:27.132Z,100844.59
2024-01-22T05:27:30.487Z,100849.69
2024-01-22T05:29:32.040Z,100855.88
2024-01-22T05:31:33.653Z,100854.06
2024-01-22T05:33:35.559Z,100857.47
2024-01-22T05:35:37.408Z,100860.25
2024-01-22T05:37:39.088Z,100844.47
2024-01-22T05:39:40.796Z,100847.16
2024-01-22T05:41:43.113Z,100835.94
2024-01-22T05:43:44.878Z,100834.88
2024-01-22T05:45:46.459Z,100845.44
2024-01-22T05:47:48.185Z,100845.94
2024-01-22T05:49:50.221Z,100835.25
2024-01-22T05:51:51.888Z,100848.22
2024-01-22T05:53:53.449Z,100834.03
2024-01-22T05:55:55.219Z,100833.44
2024-01-22T05:57:56.912Z,100836.59
2024-01-22T05:59:58.542Z,100818.03
2024-01-22T06:02:00.273Z,100820.94
2024-01-22T06:04:02.090Z,100812.22
2024-01-22T06:06:03.860Z,100819.25
2024-01-22T06:08:06.811Z,100804.53
2024-01-22T06:10:09.788Z,100811.00
2024-01-22T06:12:11.645Z,100811.72
2024-01-22T06:14:13.218Z,100802.59
2024-01-22T06:16:15.803Z,100814.78
2024-01-22T06:18:17.659Z,100812.19
2024-01-22T06:20:19.257Z,100807.72
2024-01-22T06:22:20.882Z,100815.84
2024-01-22T06:24:22.602Z,100805.41
2024-01-22T06:26:25.006Z,100808.31
2024-01-22T06:28:27.483Z,100819.84
2024-01-22T06:30:29.200Z,100818.75
2024-01-22T06:32:31.147Z,100820.44
2024-01-22T06:34:33.055Z,100816.69
2024-01-22T06:36:34.858Z,100817.31
2024-01-22T06:38:36.606Z,100803.84
2024-01-22T06:40:38.211Z,100811.34
2024-01-22T06:42:40.139Z,100809.28
2024-01-22T06:44:42.015Z,100799.59
2024-01-22T06:46:43.630Z,100789.88
2024-01-22T06:48:45.575Z,100798.25
2024-01-22T06:50:47.691Z,100808.94
2024-01-22T06:52:49.663Z,100800.19
2024-01-22T06:54:51.247Z,100811.50
2024-01-22T06:56:52.910Z,100799.69
2024-01-22T06:58:54.565Z,100812.09
2024-01-22T07:00:56.178Z,100805.03
2024-01-22T07:03:00.027Z,100827.00
2024-01-22T07:05:02.049Z,100816.22
2024-01-22T07:07:04.521Z,100817.19
2024-01-22T07:09:07.412Z,100819.97
2024-01-22T07:11:09.005Z,100820.22
2024-01-22T07:13:10.607Z,100818.63
2024-01-22T07:15:14.107Z,100819.59
2024-01-22T07:17:17.748Z,100808.94
2024-01-22T07:19:19.452Z,100802.25
2024-01-22T07:21:21.359Z,100819.72
2024-01-22T07:23:23.142Z,100828.72
2024-01-22T07:25:25.361Z,100814.28
2024-01-22T07:27:27.067Z,100802.72
2024-01-22T07:29:28.647Z,100812.31
2024-01-22T07:31:30.354Z,100830.31
2024-01-22T07:33:32.088Z,100825.06
2024-01-22T07:35:34.505Z,100819.13
2024-01-22T07:37:42.288Z,100815.63
2024-01-22T07:39:43.970Z,100807.94
2024-01-22T07:41:46.009Z,100821.78
2024-01-22T07:43:48.569Z,100817.06
2024-01-22T07:45:50.205Z,100836.25
2024-01-22T07:47:51.921Z,100828.00
2024-01-22T07:49:54.219Z,100832.34
2024-01-22T07:51:55.917Z,100840.47
2024-01-22T07:53:57.668Z,100846.94
2024-01-22T07:55:59.500Z,100834.53
2024-01-22T07:58:01.156Z,100848.03
2024-01-22T08:00:04.287Z,100857.97
2024-01-22T08:02:06.718Z,100860.03
2024-01-22T08:04:08.272Z,100857.97
2024-01-22T08:06:09.999Z,100884.56
2024-01-22T08:08:11.646Z,100866.56
2024-01-22T08:10:14.707Z,100874.34
2024-01-22T08:12:16.650Z,100865.25
2024-01-22T08:14:18.588Z,100874.47
2024-01-22T08:16:20.398Z,100873.75
2024-01-22T08:18:22.070Z,100886.84
2024-01-22T08:20:23.742Z,100900.44
2024-01-22T08:22:25.682Z,100905.91
2024-01-22T08:24:27.798Z,100915.00
2024-01-22T08:26:29.476Z,100940.72
2024-01-22T08:28:31.069Z,100960.25
2024-01-22T08:30:33.591Z,100960.63
2024-01-22T08:32:35.224Z,100973.91
2024-01-22T08:34:39.419Z,100974.38
2024-01-22T08:36:41.682Z,100987.63
2024-01-22T08:38:43.519Z,100967.56
2024-01-22T08:40:45.656Z,100982.38
2024-01-22T08:42:47.322Z,100968.19
2024-01-22T08:44:49.011Z,100965.66
2024-01-22T08:46:50.740Z,100971.00
2024-01-22T08:48:52.432Z,100967.56
2024-01-22T08:50:54.165Z,100962.97
2024-01-22T08:52:55.886Z,100968.41
2024-01-22T08:54:57.444Z,100990.28
2024-01-22T08:56:59.139Z,100994.56
2024-01-22T08:59:00.818Z,100989.06
2024-01-22T09:01:06.297Z,101008.53
2024-01-22T09:03:08.743Z,101016.63
2024-01-22T09:05:11.198Z,101005.94
2024-01-22T09:07:12.837Z,100957.59
2024-01-22T09:09:14.505Z,100999.75
2024-01-22T09:11:16.110Z,100993.56
2024-01-22T09:13:17.710Z,100999.75
2024-01-22T09:15:19.834Z,101004.38
2024-01-22T09:17:21.903Z,101011.19
2024-01-22T09:19:23.621Z,101002.09
2024-01-22T09:21:25.955Z,101010.81
2024-01-22T09:23:28.067Z,101012.53
2024-01-22T09:25:29.933Z,101015.22
2024-01-22T09:27:31.644Z,101006.47
2024-01-22T09:29:33.334Z,101008.38
2024-01-22T09:31:35.620Z,100996.16
2024-01-22T09:33:37.338Z,101012.16
2024-01-22T09:35:44.878Z,101008.75
2024-01-22T09:37:46.982Z,101019.19
2024-01-22T09:39:50.400Z,101014.47
2024-01-22T09:41:53.000Z,101014.47
2024-01-22T09:43:55.524Z,101031.00
2024-01-22T09:45:58.135Z,101028.94
2024-01-22T09:48:03.520Z,101032.47
2024-01-22T09:50:06.810Z,101033.31
2024-01-22T09:52:10.019Z,101035.97
2024-01-22T09:54:14.367Z,101027.47
2024-01-22T09:56:17.940Z,101032.69
2024-01-22T09:58:27.473Z,101031.84
2024-01-22T10:00:30.717Z,101031.84
2024-01-22T10:02:32.948Z,101030.78
2024-01-22T10:04:34.639Z,101034.16
2024-01-22T10:06:37.718Z,101034.78
2024-01-22T10:08:39.523Z,101033.06
2024-01-22T10:10:41.200Z,101048.88
2024-01-22T10:13:05.048Z,101057.00
2024-01-22T10:15:14.169Z,101067.56
2024-01-22T10:17:19.801Z,101058.72
2024-01-22T10:19:26.959Z,101058.22
2024-01-22T10:21:28.739Z,101060.16
2024-01-22T10:23:30.383Z,101065.38
2024-01-22T10:25:32.661Z,101074.13
2024-01-22T10:27:34.286Z,101084.59
2024-01-22T10:29:35.948Z,101091.63
2024-01-22T10:32:00.244Z,101087.03
2024-01-22T10:34:05.342Z,101074.38
2024-01-22T10:36:25.363Z,101093.94
2024-01-22T10:38:27.027Z,101102.78
2024-01-22T10:40:31.924Z,101107.41
2024-01-22T10:42:33.572Z,101115.78
2024-01-22T10:44:39.727Z,101106.91
2024-01-22T10:46:41.831Z,101089.28
2024-01-22T10:48:46.931Z,101092.59
2024-01-22T10:50:50.794Z,101092.69
2024-01-22T10:52:53.619Z,101123.31
2024-01-22T10:54:55.375Z,101101.72
2024-01-22T10:57:12.361Z,101103.66
2024-01-22T10:59:18.254Z,101099.28
2024-01-22T11:01:23.783Z,101089.44
2024-01-22T11:03:28.956Z,101113.47
2024-01-22T11:05:34.698Z,101092.25
2024-01-22T11:07:39.564Z,101087.88
2024-01-22T11:09:41.800Z,101083.38
2024-01-22T11:11:44.206Z,101089.56
2024-01-22T11:13:49.868Z,101091.03
2024-01-22T11:15:51.778Z,101088.25
2024-01-22T11:17:53.620Z,101084.09
2024-01-22T11:20:14.869Z,101090.72
2024-01-22T11:22:24.597Z,101088.91
2024-01-22T11:24:26.614Z,101086.28
2024-01-22T11:26:28.464Z,101088.03
2024-01-22T11:28:30.346Z,101102.31
2024-01-22T11:30:42.726Z,101115.81
2024-01-22T11:34:51.180Z,101123.00
2024-01-22T11:36:56.776Z,101130.88
2024-01-22T11:38:58.611Z,101128.00
2024-01-22T11:41:00.229Z,101130.69
2024-01-22T11:43:02.268Z,101123.28
2024-01-22T11:45:14.688Z,101121.56
2024-01-22T11:47:17.667Z,101118.78
2024-01-22T11:49:19.561Z,101124.13
2024-01-22T11:51:26.342Z,101118.78
2024-01-22T11:53:29.676Z,101109.19
2024-01-22T11:55:31.873Z,101123.50
2024-01-22T11:57:37.841Z,101117.22
2024-01-22T11:59:40.561Z,101113.44
2024-01-22T12:01:45.119Z,101115.00
2024-01-22T12:03:47.317Z,101113.09
2024-01-22T12:05:49.106Z,101105.91
2024-01-22T12:07:53.238Z,101101.41
2024-01-22T12:09:55.134Z,101103.09
2024-01-22T12:11:56.946Z,101115.53
2024-01-22T12:14:00.771Z,101113.81
2024-01-22T12:16:02.460Z,101107.97
2024-01-22T12:18:04.824Z,101125.72
2024-01-22T12:20:07.588Z,101121.44
2024-01-22T12:22:09.625Z,101119.50
2024-01-22T12:24:15.916Z,101109.56
2024-01-22T12:26:22.447Z,101106.06
2024-01-22T12:28:24.937Z,101097.16
2024-01-22T12:30:26.763Z,101112.47
2024-01-22T12:32:28.739Z,101108.97
2024-01-22T12:34:31.905Z,101109.81
2024-01-22T12:38:58.033Z,101113.34
2024-01-22T12:41:09.333Z,101111.63
2024-01-22T12:43:11.671Z,101110.78
2024-01-22T12:45:21.321Z,101105.44
2024-01-22T12:47:23.285Z,101114.22
2024-01-22T12:49:25.091Z,101118.44
2024-01-22T12:51:27.848Z,101117.34
2024-01-22T12:53:33.003Z,101111.91
2024-01-22T12:55:36.000Z,101125.28
2024-01-22T12:57:38.377Z,101132.78
2024-01-22T12:59:41.380Z,101120.41
2024-01-22T13:01:43.159Z,101131.47
2024-01-22T13:03:44.929Z,101128.06
2024-01-22T13:05:47.726Z,101137.91
2024-01-22T13:07:49.364Z,101135.47
2024-01-22T13:09:50.969Z,101143.25
2024-01-22T13:11:54.624Z,101137.06
2024-01-22T13:13:56.314Z,101115.06
2024-01-22T13:16:11.795Z,101136.06
2024-01-22T13:18:17.358Z,101141.09
2024-01-22T13:20:19.136Z,101140.94
2024-01-22T13:22:22.917Z,101135.00
2024-01-22T13:24:24.813Z,101130.38
2024-01-22T13:26:26.512Z,101141.31
2024-01-22T13:28:28.957Z,101147.75
2024-01-22T13:30:30.672Z,101140.69
2024-01-22T13:32:32.275Z,101147.84
2024-01-22T13:34:34.859Z,101141.56
2024-01-22T13:36:37.198Z,101143.25
2024-01-22T13:38:42.622Z,101144.09
2024-01-22T13:40:44.976Z,101139.59
2024-01-22T13:42:46.605Z,101129.38
2024-01-22T13:44:51.956Z,101151.38
2024-01-22T13:46:53.769Z,101154.19
2024-01-22T13:48:55.518Z,101140.31
2024-01-22T13:50:58.179Z,101142.25
2024-01-22T13:53:02.630Z,101145.88
2024-01-22T13:55:07.568Z,101155.63
2024-01-22T13:57:09.274Z,101168.00
2024-01-22T13:59:12.543Z,101157.22
2024-01-22T14:01:14.301Z,101153.56
2024-01-22T14:03:17.104Z,101154.19
2024-01-22T14:05:19.203Z,101161.13
2024-01-22T14:07:20.803Z,101168.28
2024-01-22T14:09:22.405Z,101172.75
2024-01-22T14:11:25.032Z,101183.59
2024-01-22T14:13:27.850Z,101188.19
2024-01-22T14:15:29.507Z,101195.34
2024-01-22T14:17:31.373Z,101178.59
2024-01-22T14:19:33.476Z,101184.19
2024-01-22T14:21:35.705Z,101201.78
2024-01-22T14:23:37.459Z,101189.28
2024-01-22T14:25:40.272Z,101200.00
2024-01-22T14:27:42.126Z,101188.31
2024-01-22T14:29:44.067Z,101202.28
2024-01-22T14:31:45.968Z,101210.31
2024-01-22T14:33:49.485Z,101208.63
2024-01-22T14:35:52.484Z,101201.44
2024-01-22T14:37:54.216Z,101220.25
2024-01-22T14:39:56.002Z,101215.16
2024-01-22T14:41:57.931Z,101221.16
2024-01-22T14:43:59.542Z,101229.16
2024-01-22T14:46:01.170Z,101247.75
2024-01-22T14:48:02.909Z,101242.16
2024-01-22T14:50:05.154Z,101249.81
2024-01-22T14:54:13.671Z,101253.47
2024-01-22T14:56:15.981Z,101253.38
2024-01-22T14:58:17.595Z,101259.81
2024-01-22T15:00:20.327Z,101252.88
2024-01-22T15:02:22.897Z,101259.19
2024-01-22T15:06:31.312Z,101264.41
2024-01-22T15:08:33.038Z,101266.22
2024-01-22T15:10:36.622Z,101272.31
2024-01-22T15:12:39.478Z,101277.44
2024-01-22T15:14:41.093Z,101282.66
2024-01-22T15:16:43.276Z,101284.47
2024-01-22T15:18:45.024Z,101294.19
2024-01-22T15:20:47.764Z,101279.47
2024-01-22T15:22:50.004Z,101286.41
2024-01-22T15:26:58.562Z,101286.63
2024-01-22T15:29:02.089Z,101293.81
2024-01-22T15:31:04.560Z,101298.31
2024-01-22T15:33:06.584Z,101308.03
2024-01-22T15:35:09.117Z,101315.09
2024-01-22T15:37:12.205Z,101319.25
2024-01-22T15:41:20.542Z,101311.00
2024-01-22T15:43:22.259Z,101307.34
2024-01-22T15:45:24.488Z,101316.22
2024-01-22T15:47:26.386Z,101328.63
2024-01-22T15:49:29.893Z,101337.97
2024-01-22T15:51:31.831Z,101346.97
2024-01-22T15:53:33.425Z,101338.06
2024-01-22T15:55:35.129Z,101352.53
2024-01-22T15:57:37.056Z,101351.44
2024-01-22T15:59:38.678Z,101356.56
2024-01-22T16:03:46.864Z,101383.06
2024-01-22T16:05:49.094Z,101389.16
2024-01-22T16:07:51.168Z,101401.78
2024-01-22T16:09:53.060Z,101401.78
2024-01-22T16:11:55.073Z,101396.16
2024-01-22T16:18:09.777Z,101441.66
2024-01-22T16:20:15.125Z,101448.06
2024-01-22T16:22:17.347Z,101451.72
2024-01-22T16:24:19.099Z,101449.88
2024-01-22T16:30:41.898Z,101476.84
2024-01-22T16:32:44.797Z,101489.34
2024-01-22T16:34:46.545Z,101500.34
2024-01-22T16:36:49.749Z,101504.97
2024-01-22T16:38:51.413Z,101526.84
2024-01-22T16:40:53.250Z,101525.03
2024-01-22T16:42:54.955Z,101534.97
2024-01-22T16:44:56.559Z,101537.53
2024-01-22T16:46:59.237Z,101537.75
2024-01-22T16:49:04.769Z,101536.16
2024-01-22T16:55:19.909Z,101596.31
2024-01-22T16:57:21.596Z,101597.19
2024-01-22T16:59:23.381Z,101602.75
2024-01-22T17:01:25.622Z,101589.59
2024-01-22T17:07:40.643Z,101607.63
2024-01-22T17:09:42.331Z,101609.38
2024-01-22T17:11:45.197Z,101613.53
2024-01-22T17:13:47.006Z,101618.88
2024-01-22T17:15:49.243Z,101620.59
2024-01-22T17:17:52.511Z,101623.25
2024-01-22T17:19:54.926Z,101621.47
2024-01-22T17:21:56.703Z,101632.38
2024-01-22T17:23:58.381Z,101622.63
2024-01-22T17:26:00.728Z,101616.75
2024-01-22T17:28:02.609Z,101629.97
2024-01-22T17:30:05.026Z,101637.16
2024-01-22T17:32:07.952Z,101637.16
2024-01-22T17:34:09.736Z,101633.63
2024-01-22T17:36:12.565Z,101634.34
2024-01-22T17:38:14.294Z,101634.28
2024-01-22T17:40:16.307Z,101644.75
2024-01-22T17:42:18.085Z,101647.31
2024-01-22T17:44:19.846Z,101655.25
2024-01-22T17:46:21.796Z,101656.94
2024-01-22T17:48:23.489Z,101653.41
2024-01-22T17:50:25.265Z,101661.63
2024-01-22T17:52:27.399Z,101666.00
2024-01-22T17:54:29.093Z,101658.88
2024-01-22T17:56:30.769Z,101670.31
2024-01-22T17:58:32.728Z,101675.44
2024-01-22T18:02:40.874Z,101690.31
2024-01-22T18:04:42.476Z,101689.28
2024-01-22T18:06:44.204Z,101690.97
2024-01-22T18:08:45.979Z,101698.16
2024-01-22T18:10:49.561Z,101698.31
2024-01-22T18:12:51.147Z,101705.50
2024-01-22T18:14:52.843Z,101709.00
2024-01-22T18:19:01.080Z,101704.59
2024-01-22T18:21:02.831Z,101722.22
2024-01-22T18:23:04.541Z,101709.41
2024-01-22T18:25:06.736Z,101713.03
2024-01-22T18:27:08.393Z,101723.53
2024-01-22T18:31:17.254Z,101730.59
2024-01-22T18:33:18.999Z,101735.16
2024-01-22T18:35:20.768Z,101735.94
2024-01-22T18:37:24.604Z,101735.94
2024-01-22T18:39:26.200Z,101735.16
2024-01-22T18:41:28.961Z,101748.66
2024-01-22T18:43:30.962Z,101750.47
2024-01-22T18:45:33.315Z,101751.00
2024-01-22T18:47:35.048Z,101744.91
2024-01-22T18:49:39.788Z,101764.06
2024-01-22T18:51:41.486Z,101769.31
2024-01-22T18:53:43.026Z,101779.91
2024-01-22T18:55:44.640Z,101786.97
2024-01-22T18:57:46.345Z,101792.41
2024-01-22T18:59:49.285Z,101792.50
2024-01-22T19:01:50.997Z,101808.44
2024-01-22T19:03:52.769Z,101816.56
2024-01-22T19:05:54.461Z,101813.25
2024-01-22T19:07:56.106Z,101810.19
2024-01-22T19:09:57.726Z,101810.06
2024-01-22T19:11:59.470Z,101824.06
2024-01-22T19:14:02.265Z,101826.75
2024-01-22T19:16:04.096Z,101832.09
2024-01-22T19:18:05.849Z,101834.56
2024-01-22T19:20:09.845Z,101838.22
2024-01-22T19:22:11.638Z,101831.44
2024-01-22T19:24:13.351Z,101835.75
2024-01-22T19:26:15.178Z,101842.16
2024-01-22T19:28:16.806Z,101849.31
2024-01-22T19:30:18.542Z,101852.84
2024-01-22T19:32:20.329Z,101855.31
2024-01-22T19:34:21.962Z,101866.13
2024-01-22T19:36:23.650Z,101879.94
2024-01-22T19:38:25.245Z,101872.78
2024-01-22T19:40:26.864Z,101876.19
2024-01-22T19:42:28.718Z,101878.00
2024-01-22T19:44:30.369Z,101884.44
2024-01-22T19:46:32.023Z,101891.69
2024-01-22T19:48:36.211Z,101889.31
2024-01-22T19:50:38.049Z,101891.03
2024-01-22T19:52:39.753Z,101900.13
2024-01-22T19:54:41.437Z,101910.69
2024-01-22T19:56:45.909Z,101915.00
2024-01-22T19:58:47.703Z,101926.53
2024-01-22T20:00:49.447Z,101916.63
2024-01-22T20:02:51.309Z,101920.91
2024-01-22T20:04:53.025Z,101924.44
2024-01-22T20:06:55.379Z,101926.25
2024-01-22T20:08:57.604Z,101925.50
2024-01-22T20:10:59.224Z,101929.13
2024-01-22T20:13:01.116Z,101935.66
2024-01-22T20:15:02.792Z,101932.09
2024-01-22T20:17:04.530Z,101928.69
2024-01-22T20:19:06.225Z,101938.31
2024-01-22T20:21:07.890Z,101939.06
2024-01-22T20:25:16.275Z,101952.88
2024-01-22T20:27:19.016Z,101960.91
2024-01-22T20:29:22.466Z,101967.13
2024-01-22T20:31:25.828Z,101953.84
2024-01-22T20:33:27.569Z,101956.53
2024-01-22T20:35:29.605Z,101979.84
2024-01-22T20:37:33.857Z,101972.97
2024-01-22T20:39:35.645Z,101972.31
2024-01-22T20:41:43.355Z,101977.53
2024-01-22T20:43:45.049Z,101974.03
2024-01-22T20:45:47.253Z,101977.34
2024-01-22T20:47:53.627Z,101974.41
2024-01-22T20:49:55.474Z,101991.19
2024-01-22T20:51:57.205Z,101993.00
2024-01-22T20:53:59.448Z,101996.75
2024-01-22T20:56:01.364Z,101994.09
2024-01-22T20:58:04.821Z,102009.25
2024-01-22T21:00:09.921Z,101996.25
2024-01-22T21:02:12.615Z,102016.72
2024-01-22T21:04:15.375Z,102028.28
2024-01-22T21:06:17.509Z,101998.75
2024-01-22T21:08:19.560Z,102002.31
2024-01-22T21:10:21.578Z,102001.13
2024-01-22T21:12:23.238Z,101992.16
2024-01-22T21:14:25.063Z,101993.78
2024-01-22T21:16:30.236Z,101989.59
2024-01-22T21:18:32.811Z,101997.41
2024-01-22T21:20:34.514Z,101994.09
2024-01-22T21:22:37.396Z,102005.72
2024-01-22T21:24:39.171Z,101992.34
2024-01-22T21:26:40.852Z,101987.13
2024-01-22T21:28:43.153Z,101992.72
2024-01-22T21:30:44.819Z,101997.88
2024-01-22T21:32:46.602Z,102010.13
2024-01-22T21:34:51.128Z,102003.81
2024-01-22T21:36:52.811Z,102008.13
2024-01-22T21:39:01.276Z,102011.66
2024-01-22T21:41:03.368Z,102015.94
2024-01-22T21:43:06.557Z,102011.66
2024-01-22T21:45:08.720Z,101989.97
2024-01-22T21:47:10.396Z,102000.69
2024-01-22T21:49:16.907Z,102010.31
2024-01-22T21:51:18.665Z,102003.34
2024-01-22T21:53:20.405Z,102015.88
2024-01-22T21:55:22.563Z,101994.56
2024-01-22T21:57:24.388Z,102008.31
2024-01-22T21:59:26.134Z,102003.69
2024-01-22T22:01:31.431Z,102008.13
2024-01-22T22:03:36.585Z,102010.88
2024-01-22T22:05:39.194Z,102025.09
2024-01-22T22:07:42.680Z,102009.06
2024-01-22T22:09:45.237Z,102010.13
2024-01-22T22:11:47.049Z,102002.31
2024-01-22T22:13:49.384Z,102005.91
2024-01-22T22:15:51.275Z,101993.41
2024-01-22T22:17:53.889Z,101983.00
2024-01-22T22:19:55.971Z,101997.69
2024-01-22T22:21:57.560Z,101990.44
2024-01-22T22:24:00.923Z,101993.00
2024-01-22T22:26:02.872Z,102006.28
2024-01-22T22:28:05.128Z,102001.81
2024-01-22T22:30:08.605Z,102003.63
2024-01-22T22:32:10.230Z,102003.63
2024-01-22T22:34:12.049Z,102004.97
2024-01-22T22:36:17.194Z,102002.50
2024-01-22T22:38:19.504Z,102007.66
2024-01-22T22:40:22.408Z,102018.34
2024-01-22T22:42:24.087Z,102022.63
2024-01-22T22:44:25.764Z,102018.34
2024-01-22T22:46:33.053Z,102037.53
2024-01-22T22:48:35.153Z,102037.34
2024-01-22T22:50:36.808Z,102038.28
2024-01-22T22:52:38.651Z,102024.91
2024-01-22T22:54:41.700Z,102042.69
2024-01-22T22:56:44.008Z,102040.00
2024-01-22T22:58:48.687Z,102053.66
2024-01-22T23:00:53.633Z,102039.28
2024-01-22T23:02:56.049Z,102053.13
2024-01-22T23:04:58.027Z,102064.75
2024-01-22T23:06:59.661Z,102064.75
2024-01-22T23:09:01.297Z,102080.72
2024-01-22T23:11:03.507Z,102075.38
2024-01-22T23:13:05.098Z,102081.19
2024-01-22T23:15:07.129Z,102082.03
2024-01-22T23:17:12.090Z,102084.72
2024-01-22T23:19:13.852Z,102083.09
2024-01-22T23:21:15.819Z,102081.56
2024-01-22T23:23:18.315Z,102078.97
2024-01-22T23:25:20.058Z,102079.09
2024-01-22T23:27:23.896Z,102080.91
2024-01-22T23:29:26.017Z,102080.72
2024-01-22T23:31:27.678Z,102077.94
2024-01-22T23:33:31.247Z,102075.25
2024-01-22T23:35:34.942Z,102068.75
2024-01-22T23:37:36.725Z,102072.56
2024-01-22T23:39:38.360Z,102083.84
2024-01-22T23:41:41.524Z,102086.53
2024-01-22T23:43:43.386Z,102073.44
2024-01-22T23:45:46.020Z,102084.78
2024-01-22T23:47:47.841Z,102079.56
2024-01-22T23:49:52.704Z,102071.66
2024-01-22T23:51:54.545Z,102093.22
2024-01-22T23:53:56.182Z,102094.09
2024-01-22T23:55:58.513Z,102092.44
2024-01-22T23:58:00.181Z,102105.44
